createdAt,value
2019-04-04T00:02:26.657Z,8.06
2019-04-04T00:04:58.363Z,8.09
2019-04-04T00:07:29.699Z,8.10
2019-04-04T00:10:02.072Z,8.14
2019-04-04T00:12:33.424Z,8.16
2019-04-04T00:15:03.772Z,8.19
2019-04-04T00:17:34.331Z,8.17
2019-04-04T00:20:05.471Z,8.23
2019-04-04T00:22:37.050Z,8.26
2019-04-04T00:25:09.793Z,8.25
2019-04-04T00:27:39.619Z,8.27
2019-04-04T00:30:11.226Z,8.27
2019-04-04T00:32:42.006Z,8.29
2019-04-04T00:35:13.609Z,8.28
2019-04-04T00:37:44.530Z,8.25
2019-04-04T00:40:15.671Z,8.29
2019-04-04T00:42:47.862Z,8.35
2019-04-04T00:45:18.663Z,8.38
2019-04-04T00:47:49.618Z,8.38
2019-04-04T00:50:20.083Z,8.39
2019-04-04T00:52:50.563Z,8.41
2019-04-04T00:55:21.071Z,8.39
2019-04-04T00:57:51.931Z,8.60
2019-04-04T01:00:23.936Z,8.68
2019-04-04T01:02:55.258Z,8.74
2019-04-04T01:05:27.208Z,8.92
2019-04-04T01:07:58.030Z,9.13
2019-04-04T01:10:28.455Z,9.35
2019-04-04T01:12:59.188Z,9.50
2019-04-04T01:15:31.105Z,9.63
2019-04-04T01:18:01.887Z,9.77
2019-04-04T01:20:32.245Z,9.89
2019-04-04T01:23:02.801Z,9.96
2019-04-04T01:25:33.660Z,10.04
2019-04-04T01:28:04.108Z,10.12
2019-04-04T01:30:35.217Z,10.04
2019-04-04T01:33:06.039Z,10.13
2019-04-04T01:35:37.107Z,10.22
2019-04-04T01:38:07.358Z,10.29
2019-04-04T01:40:37.925Z,10.31
2019-04-04T01:43:10.318Z,10.38
2019-04-04T01:45:43.740Z,10.41
2019-04-04T01:48:13.141Z,10.45
2019-04-04T01:50:43.490Z,10.44
2019-04-04T01:53:13.970Z,10.40
2019-04-04T01:55:44.430Z,10.30
2019-04-04T01:58:16.718Z,10.25
2019-04-04T02:00:47.090Z,10.26
2019-04-04T02:03:18.682Z,10.17
2019-04-04T02:05:50.122Z,10.22
2019-04-04T02:08:20.446Z,10.28
2019-04-04T02:10:51.180Z,10.30
2019-04-04T02:13:21.614Z,10.32
2019-04-04T02:15:51.857Z,10.31
2019-04-04T02:18:23.651Z,10.20
2019-04-04T02:20:57.539Z,10.12
2019-04-04T02:23:27.506Z,10.05
2019-04-04T02:25:58.125Z,10.02
2019-04-04T02:28:29.652Z,9.97
2019-04-04T02:31:01.631Z,9.93
2019-04-04T02:33:33.242Z,9.83
2019-04-04T02:36:03.939Z,9.69
2019-04-04T02:38:34.604Z,9.35
2019-04-04T02:41:05.025Z,9.29
2019-04-04T02:43:35.799Z,9.20
2019-04-04T02:46:11.051Z,9.25
2019-04-04T02:48:40.171Z,9.32
2019-04-04T02:51:10.751Z,9.42
2019-04-04T02:53:41.633Z,9.41
2019-04-04T02:56:12.740Z,9.46
2019-04-04T02:58:46.503Z,9.56
2019-04-04T03:01:17.035Z,9.64
2019-04-04T03:03:50.362Z,9.65
2019-04-04T03:06:23.893Z,9.69
2019-04-04T03:08:52.808Z,9.46
2019-04-04T03:11:24.043Z,9.34
2019-04-04T03:13:54.703Z,9.22
2019-04-04T03:16:24.973Z,9.20
2019-04-04T03:19:00.025Z,9.24
2019-04-04T03:21:31.564Z,9.22
2019-04-04T03:24:05.947Z,9.12
2019-04-04T03:26:34.688Z,8.98
2019-04-04T03:29:07.105Z,8.87
2019-04-04T03:31:39.012Z,8.74
2019-04-04T03:34:12.446Z,8.73
2019-04-04T03:36:42.459Z,8.71
2019-04-04T03:39:13.687Z,8.81
2019-04-04T03:41:44.721Z,8.84
2019-04-04T03:44:19.595Z,8.87
2019-04-04T03:46:48.018Z,9.01
2019-04-04T03:49:23.363Z,9.05
2019-04-04T03:51:50.950Z,9.02
2019-04-04T03:54:24.625Z,9.12
2019-04-04T03:56:55.154Z,9.21
2019-04-04T03:59:26.123Z,9.25
2019-04-04T04:01:56.552Z,9.26
2019-04-04T04:04:28.122Z,9.04
2019-04-04T04:06:59.217Z,8.90
2019-04-04T04:09:29.561Z,8.86
2019-04-04T04:12:00.266Z,8.95
2019-04-04T04:14:31.029Z,8.97
2019-04-04T04:17:01.662Z,8.89
2019-04-04T04:19:32.622Z,8.91
2019-04-04T04:22:03.380Z,8.88
2019-04-04T04:24:34.145Z,8.84
2019-04-04T04:27:04.489Z,8.80
2019-04-04T04:29:34.794Z,8.81
2019-04-04T04:32:05.701Z,8.80
2019-04-04T04:34:36.364Z,8.78
2019-04-04T04:37:07.033Z,8.76
2019-04-04T04:39:41.208Z,8.68
2019-04-04T04:42:09.938Z,8.64
2019-04-04T04:44:40.170Z,8.60
2019-04-04T04:47:10.735Z,8.55
2019-04-04T04:49:41.434Z,8.51
2019-04-04T04:52:15.136Z,8.46
2019-04-04T04:54:45.076Z,8.44
2019-04-04T04:57:28.737Z,8.43
2019-04-04T04:59:52.858Z,8.40
2019-04-04T05:02:22.372Z,8.39
2019-04-04T05:04:54.505Z,8.34
2019-04-04T05:07:24.815Z,8.30
2019-04-04T05:09:55.079Z,8.26
2019-04-04T05:12:27.106Z,8.23
2019-04-04T05:15:02.204Z,8.20
2019-04-04T05:17:33.005Z,8.20
2019-04-04T05:20:04.795Z,8.24
2019-04-04T05:22:35.730Z,8.26
2019-04-04T05:25:08.537Z,8.25
2019-04-04T05:27:38.608Z,8.25
2019-04-04T05:30:09.519Z,8.27
2019-04-04T05:32:40.249Z,8.29
2019-04-04T05:35:10.716Z,8.34
2019-04-04T05:37:41.144Z,8.38
2019-04-04T05:40:11.873Z,8.44
2019-04-04T05:42:43.005Z,8.50
2019-04-04T05:45:14.334Z,8.52
2019-04-04T05:47:45.624Z,8.56
2019-04-04T05:50:16.651Z,8.58
2019-04-04T05:52:47.256Z,8.62
2019-04-04T05:55:18.181Z,8.58
2019-04-04T05:57:50.948Z,8.44
2019-04-04T06:00:22.092Z,8.40
2019-04-04T06:02:52.899Z,8.33
2019-04-04T06:05:23.147Z,8.44
2019-04-04T06:07:53.538Z,8.58
2019-04-04T06:10:24.213Z,8.66
2019-04-04T06:12:56.333Z,8.70
2019-04-04T06:15:27.831Z,8.72
2019-04-04T06:17:58.552Z,8.75
2019-04-04T06:20:28.939Z,8.82
2019-04-04T06:23:00.011Z,8.84
2019-04-04T06:25:34.193Z,8.82
2019-04-04T06:28:03.354Z,8.84
2019-04-04T06:30:43.547Z,8.91
2019-04-04T06:33:11.528Z,8.95
2019-04-04T06:35:42.803Z,8.98
2019-04-04T06:38:13.518Z,9.02
2019-04-04T06:40:43.853Z,9.02
2019-04-04T06:43:15.826Z,9.06
2019-04-04T06:45:46.727Z,9.11
2019-04-04T06:48:18.599Z,9.12
2019-04-04T06:50:49.440Z,9.10
2019-04-04T06:53:21.858Z,9.10
2019-04-04T06:55:52.263Z,9.09
2019-04-04T06:58:22.959Z,9.06
2019-04-04T07:00:53.778Z,9.07
2019-04-04T07:03:27.910Z,9.10
2019-04-04T07:05:57.484Z,9.15
2019-04-04T07:08:27.710Z,9.14
2019-04-04T07:11:02.770Z,9.09
2019-04-04T07:13:41.648Z,9.05
2019-04-04T07:16:07.709Z,9.00
2019-04-04T07:18:35.951Z,9.03
2019-04-04T07:21:07.058Z,9.09
2019-04-04T07:23:37.289Z,9.07
2019-04-04T07:26:09.641Z,8.97
2019-04-04T07:28:40.968Z,8.87
2019-04-04T07:31:11.794Z,8.81
2019-04-04T07:33:42.869Z,8.77
2019-04-04T07:36:13.947Z,8.71
2019-04-04T07:38:44.241Z,8.55
2019-04-04T07:41:15.074Z,8.54
2019-04-04T07:43:46.048Z,8.47
2019-04-04T07:46:17.227Z,8.37
2019-04-04T07:48:53.235Z,8.37
2019-04-04T07:51:24.581Z,8.38
2019-04-04T07:53:57.653Z,8.44
2019-04-04T07:56:28.043Z,8.56
2019-04-04T07:58:59.547Z,8.65
2019-04-04T08:01:29.944Z,8.78
2019-04-04T08:04:01.698Z,8.84
2019-04-04T08:06:32.827Z,8.88
2019-04-04T08:09:05.543Z,8.94
2019-04-04T08:11:38.910Z,8.83
2019-04-04T08:14:09.380Z,8.95
2019-04-04T08:16:39.923Z,9.02
2019-04-04T08:19:11.842Z,9.12
2019-04-04T08:21:42.986Z,9.25
2019-04-04T08:24:15.305Z,9.34
2019-04-04T08:26:46.299Z,9.38
2019-04-04T08:29:18.732Z,9.46
2019-04-04T08:31:50.107Z,9.64
2019-04-04T08:34:21.651Z,9.62
2019-04-04T08:36:59.091Z,9.75
2019-04-04T08:39:29.384Z,9.81
2019-04-04T08:41:59.817Z,9.76
2019-04-04T08:44:30.686Z,9.69
2019-04-04T08:47:01.302Z,10.01
2019-04-04T08:49:31.653Z,10.01
2019-04-04T08:52:16.121Z,9.92
2019-04-04T08:54:36.516Z,9.93
2019-04-04T08:57:07.160Z,9.80
2019-04-04T08:59:38.740Z,9.38
2019-04-04T09:02:14.483Z,9.19
2019-04-04T09:04:45.272Z,9.33
2019-04-04T09:07:15.651Z,9.08
2019-04-04T09:09:46.589Z,9.37
2019-04-04T09:12:18.479Z,9.29
2019-04-04T09:14:49.507Z,9.65
2019-04-04T09:17:20.035Z,9.76
2019-04-04T09:19:50.741Z,9.85
2019-04-04T09:22:24.136Z,9.87
2019-04-04T09:24:56.847Z,9.95
2019-04-04T09:27:29.812Z,10.07
2019-04-04T09:30:00.997Z,10.00
2019-04-04T09:32:32.658Z,10.02
2019-04-04T09:35:03.955Z,10.20
2019-04-04T09:37:34.740Z,10.35
2019-04-04T09:40:09.294Z,10.39
2019-04-04T09:42:39.661Z,10.27
2019-04-04T09:45:10.533Z,10.31
2019-04-04T09:47:41.206Z,10.24
2019-04-04T09:50:12.106Z,10.36
2019-04-04T09:52:42.510Z,10.32
2019-04-04T09:55:13.337Z,10.31
2019-04-04T09:57:43.791Z,10.38
2019-04-04T10:00:14.594Z,10.43
2019-04-04T10:02:46.053Z,10.60
2019-04-04T10:05:16.793Z,10.55
2019-04-04T10:07:47.261Z,10.43
2019-04-04T10:10:17.961Z,10.20
2019-04-04T10:12:48.914Z,10.35
2019-04-04T10:15:19.718Z,10.62
2019-04-04T10:17:50.782Z,10.76
2019-04-04T10:20:20.973Z,11.07
2019-04-04T10:22:52.125Z,10.86
2019-04-04T10:25:22.506Z,10.63
2019-04-04T10:27:53.672Z,10.67
2019-04-04T10:30:24.148Z,10.50
2019-04-04T10:32:54.483Z,10.64
2019-04-04T10:35:26.163Z,11.20
2019-04-04T10:37:57.544Z,11.53
2019-04-04T10:40:27.967Z,11.57
2019-04-04T10:42:58.762Z,11.73
2019-04-04T10:45:29.691Z,11.84
2019-04-04T10:48:01.187Z,12.05
2019-04-04T10:50:31.498Z,11.95
2019-04-04T10:53:01.729Z,11.98
2019-04-04T10:55:33.347Z,12.27
2019-04-04T10:58:04.935Z,12.14
2019-04-04T11:00:35.945Z,11.88
2019-04-04T11:03:06.493Z,11.84
2019-04-04T11:05:37.112Z,11.64
2019-04-04T11:08:07.952Z,11.75
2019-04-04T11:10:38.736Z,11.87
2019-04-04T11:13:09.150Z,11.85
2019-04-04T11:15:40.027Z,12.01
2019-04-04T11:18:11.122Z,11.67
2019-04-04T11:20:48.610Z,11.48
2019-04-04T11:23:19.599Z,11.55
2019-04-04T11:25:49.826Z,11.89
2019-04-04T11:28:20.716Z,12.01
2019-04-04T11:30:51.597Z,12.05
2019-04-04T11:33:23.210Z,12.18
2019-04-04T11:35:53.503Z,12.23
2019-04-04T11:38:24.663Z,12.22
2019-04-04T11:40:55.544Z,12.28
2019-04-04T11:43:26.708Z,12.13
2019-04-04T11:45:57.963Z,12.01
2019-04-04T11:48:28.202Z,12.35
2019-04-04T11:50:59.564Z,12.61
2019-04-04T11:53:34.027Z,12.42
2019-04-04T11:56:04.707Z,12.42
2019-04-04T11:58:34.949Z,12.48
2019-04-04T12:01:12.297Z,12.30
2019-04-04T12:03:44.551Z,11.97
2019-04-04T12:06:19.790Z,12.12
2019-04-04T12:08:50.971Z,12.24
2019-04-04T12:11:22.827Z,12.34
2019-04-04T12:13:54.543Z,12.14
2019-04-04T12:16:24.969Z,12.43
2019-04-04T12:18:56.436Z,12.43
2019-04-04T12:21:27.203Z,12.42
2019-04-04T12:23:57.656Z,12.70
2019-04-04T12:26:31.459Z,12.06
2019-04-04T12:29:01.824Z,11.64
2019-04-04T12:31:34.197Z,11.37
2019-04-04T12:34:04.833Z,11.93
2019-04-04T12:36:37.305Z,14.14
2019-04-04T12:39:10.367Z,14.14
2019-04-04T12:41:44.379Z,15.20
2019-04-04T12:44:14.821Z,15.99
2019-04-04T12:46:46.063Z,16.60
2019-04-04T12:49:16.837Z,16.72
2019-04-04T12:51:47.124Z,16.52
2019-04-04T12:54:17.568Z,16.27
2019-04-04T12:56:48.959Z,15.20
2019-04-04T12:59:19.555Z,14.47
2019-04-04T13:01:50.425Z,14.25
2019-04-04T13:04:30.972Z,14.57
2019-04-04T13:06:54.276Z,14.16
2019-04-04T13:09:24.532Z,14.40
2019-04-04T13:11:58.906Z,14.50
2019-04-04T13:14:30.377Z,14.79
2019-04-04T13:17:00.768Z,14.47
2019-04-04T13:19:31.535Z,14.52
2019-04-04T13:22:02.209Z,14.64
2019-04-04T13:24:33.066Z,14.95
2019-04-04T13:27:03.974Z,15.31
2019-04-04T13:29:39.120Z,16.03
2019-04-04T13:32:10.368Z,16.61
2019-04-04T13:34:41.279Z,17.40
2019-04-04T13:37:13.020Z,17.27
2019-04-04T13:39:43.619Z,17.11
2019-04-04T13:42:14.600Z,18.11
2019-04-04T13:44:48.382Z,18.72
2019-04-04T13:47:19.790Z,19.00
2019-04-04T13:49:51.004Z,18.75
2019-04-04T13:52:21.605Z,18.42
2019-04-04T13:54:55.678Z,16.97
2019-04-04T13:57:26.175Z,15.90
2019-04-04T13:59:57.003Z,15.08
2019-04-04T14:02:32.318Z,15.38
2019-04-04T14:05:13.969Z,15.57
2019-04-04T14:07:43.924Z,15.48
2019-04-04T14:10:17.498Z,15.29
2019-04-04T14:12:47.574Z,15.48
2019-04-04T14:15:18.007Z,14.99
2019-04-04T14:17:48.714Z,14.80
2019-04-04T14:20:18.922Z,14.98
2019-04-04T14:22:51.106Z,14.89
2019-04-04T14:25:21.536Z,15.09
2019-04-04T14:27:52.185Z,15.56
2019-04-04T14:30:22.823Z,16.21
2019-04-04T14:32:53.089Z,16.97
2019-04-04T14:35:23.404Z,17.53
2019-04-04T14:37:54.649Z,17.54
2019-04-04T14:40:25.860Z,16.41
2019-04-04T14:42:56.878Z,16.81
2019-04-04T14:45:30.155Z,16.83
2019-04-04T14:48:00.854Z,16.73
2019-04-04T14:50:31.730Z,16.28
2019-04-04T14:53:02.299Z,15.29
2019-04-04T14:55:33.490Z,14.88
2019-04-04T14:58:04.383Z,14.97
2019-04-04T15:00:34.959Z,14.64
2019-04-04T15:03:05.877Z,14.61
2019-04-04T15:05:36.378Z,14.25
2019-04-04T15:08:08.226Z,14.28
2019-04-04T15:10:39.204Z,14.36
2019-04-04T15:13:10.199Z,14.66
2019-04-04T15:16:02.315Z,14.62
2019-04-04T15:18:34.091Z,14.72
2019-04-04T15:21:04.608Z,14.93
2019-04-04T15:23:35.456Z,15.00
2019-04-04T15:26:06.257Z,14.95
2019-04-04T15:28:37.220Z,14.92
2019-04-04T15:31:08.428Z,14.70
2019-04-04T15:33:39.097Z,14.34
2019-04-04T15:36:09.634Z,14.40
2019-04-04T15:38:41.565Z,14.30
2019-04-04T15:41:12.651Z,14.35
2019-04-04T15:43:43.423Z,14.56
2019-04-04T15:46:14.760Z,14.20
2019-04-04T15:48:47.192Z,13.75
2019-04-04T15:51:17.766Z,13.67
2019-04-04T15:53:48.452Z,13.67
2019-04-04T15:56:18.988Z,13.83
2019-04-04T15:58:49.208Z,13.92
2019-04-04T16:01:20.688Z,13.79
2019-04-04T16:03:52.422Z,13.53
2019-04-04T16:06:22.927Z,13.46
2019-04-04T16:08:53.317Z,13.31
2019-04-04T16:11:23.668Z,13.31
2019-04-04T16:13:53.934Z,13.37
2019-04-04T16:16:25.052Z,13.41
2019-04-04T16:19:00.497Z,13.51
2019-04-04T16:21:33.174Z,13.60
2019-04-04T16:24:04.318Z,13.55
2019-04-04T16:26:35.658Z,13.55
2019-04-04T16:29:05.935Z,13.61
2019-04-04T16:31:36.256Z,13.54
2019-04-04T16:34:06.786Z,13.71
2019-04-04T16:36:39.559Z,13.71
2019-04-04T16:39:11.739Z,13.81
2019-04-04T16:41:42.323Z,13.80
2019-04-04T16:44:13.670Z,13.80
2019-04-04T16:46:44.143Z,13.87
2019-04-04T16:49:15.776Z,13.94
2019-04-04T16:51:47.549Z,13.79
2019-04-04T16:54:24.329Z,13.61
2019-04-04T16:56:55.903Z,13.51
2019-04-04T16:59:26.469Z,13.26
2019-04-04T17:01:56.783Z,13.01
2019-04-04T17:04:27.326Z,13.01
2019-04-04T17:06:57.774Z,12.77
2019-04-04T17:09:29.749Z,12.39
2019-04-04T17:12:14.184Z,12.39
2019-04-04T17:14:35.247Z,12.09
2019-04-04T17:17:05.631Z,11.82
2019-04-04T17:19:37.300Z,11.52
2019-04-04T17:22:08.149Z,11.41
2019-04-04T17:24:39.428Z,11.29
2019-04-04T17:27:10.689Z,11.20
2019-04-04T17:29:40.921Z,11.09
2019-04-04T17:32:12.626Z,10.99
2019-04-04T17:34:44.325Z,10.89
2019-04-04T17:37:15.508Z,10.84
2019-04-04T17:39:46.372Z,10.77
2019-04-04T17:42:29.610Z,10.72
2019-04-04T17:44:52.917Z,10.66
2019-04-04T17:47:23.884Z,10.62
2019-04-04T17:49:54.714Z,10.60
2019-04-04T17:52:25.448Z,10.64
2019-04-04T17:54:57.920Z,10.50
2019-04-04T17:57:28.295Z,10.48
2019-04-04T17:59:58.966Z,10.53
2019-04-04T18:02:31.173Z,10.62
2019-04-04T18:05:01.594Z,10.67
2019-04-04T18:07:32.087Z,10.66
2019-04-04T18:10:03.954Z,10.64
2019-04-04T18:12:40.521Z,10.72
2019-04-04T18:15:08.612Z,10.78
2019-04-04T18:17:39.647Z,10.81
2019-04-04T18:20:15.755Z,10.72
2019-04-04T18:22:46.324Z,10.76
2019-04-04T18:25:19.859Z,10.64
2019-04-04T18:27:50.252Z,10.60
2019-04-04T18:30:21.077Z,10.55
2019-04-04T18:32:51.617Z,10.54
2019-04-04T18:35:23.177Z,10.57
2019-04-04T18:37:54.126Z,10.56
2019-04-04T18:40:24.878Z,10.66
2019-04-04T18:42:55.753Z,10.68
2019-04-04T18:45:28.163Z,10.75
2019-04-04T18:47:58.719Z,10.73
2019-04-04T18:50:30.217Z,10.76
2019-04-04T18:53:01.126Z,10.60
2019-04-04T18:55:32.185Z,10.52
2019-04-04T18:58:06.096Z,10.45
2019-04-04T19:00:37.071Z,10.53
2019-04-04T19:03:08.025Z,10.53
2019-04-04T19:05:39.044Z,10.34
2019-04-04T19:08:09.951Z,10.23
2019-04-04T19:10:40.388Z,10.15
2019-04-04T19:13:10.767Z,10.07
2019-04-04T19:15:41.803Z,10.02
2019-04-04T19:18:13.453Z,10.04
2019-04-04T19:20:44.617Z,9.94
2019-04-04T19:23:15.740Z,9.81
2019-04-04T19:25:46.462Z,9.74
2019-04-04T19:28:22.690Z,9.63
2019-04-04T19:30:53.665Z,9.51
2019-04-04T19:33:24.170Z,9.61
2019-04-04T19:35:55.010Z,9.62
2019-04-04T19:38:25.597Z,9.66
2019-04-04T19:40:56.719Z,9.69
2019-04-04T19:43:27.832Z,9.72
2019-04-04T19:45:58.499Z,9.79
2019-04-04T19:48:31.401Z,9.81
2019-04-04T19:51:08.531Z,9.71
2019-04-04T19:53:42.161Z,9.67
2019-04-04T19:56:14.497Z,9.62
2019-04-04T19:58:45.682Z,9.62
2019-04-04T20:01:18.764Z,9.57
2019-04-04T20:03:51.071Z,9.53
2019-04-04T20:06:22.068Z,9.32
2019-04-04T20:08:53.768Z,9.17
2019-04-04T20:11:27.673Z,9.06
2019-04-04T20:13:59.631Z,9.03
2019-04-04T20:16:30.242Z,9.02
2019-04-04T20:19:03.984Z,9.00
2019-04-04T20:21:33.069Z,8.96
2019-04-04T20:24:03.614Z,9.00
2019-04-04T20:26:34.218Z,9.02
2019-04-04T20:29:04.651Z,9.09
2019-04-04T20:31:35.772Z,9.15
2019-04-04T20:34:07.218Z,9.24
2019-04-04T20:36:37.951Z,9.15
2019-04-04T20:39:09.046Z,9.11
2019-04-04T20:41:39.420Z,9.04
2019-04-04T20:44:12.636Z,8.94
2019-04-04T20:46:43.198Z,8.98
2019-04-04T20:49:14.565Z,9.04
2019-04-04T20:51:46.737Z,9.12
2019-04-04T20:54:17.465Z,9.01
2019-04-04T20:56:51.923Z,8.90
2019-04-04T20:59:23.330Z,8.85
2019-04-04T21:01:56.530Z,8.81
2019-04-04T21:04:26.149Z,8.70
2019-04-04T21:07:01.430Z,8.75
2019-04-04T21:09:33.503Z,8.75
2019-04-04T21:12:06.120Z,8.56
2019-04-04T21:14:37.887Z,8.42
2019-04-04T21:17:08.625Z,8.39
2019-04-04T21:19:40.328Z,8.33
2019-04-04T21:22:11.869Z,8.24
2019-04-04T21:24:47.073Z,8.28
2019-04-04T21:27:18.933Z,8.41
2019-04-04T21:29:50.398Z,8.50
2019-04-04T21:32:21.926Z,8.52
2019-04-04T21:34:52.800Z,8.51
2019-04-04T21:37:23.820Z,8.46
2019-04-04T21:40:07.232Z,8.34
2019-04-04T21:42:38.788Z,8.29
2019-04-04T21:45:15.069Z,8.23
2019-04-04T21:47:44.969Z,8.17
2019-04-04T21:50:15.636Z,8.19
2019-04-04T21:52:46.438Z,8.14
2019-04-04T21:55:17.193Z,8.09
2019-04-04T21:57:48.763Z,8.10
2019-04-04T22:00:20.878Z,8.08
2019-04-04T22:02:51.443Z,8.04
2019-04-04T22:05:22.407Z,8.01
2019-04-04T22:07:52.913Z,7.97
2019-04-04T22:10:24.247Z,7.94
2019-04-04T22:12:55.449Z,7.92
2019-04-04T22:15:27.607Z,7.92
2019-04-04T22:18:00.340Z,7.98
2019-04-04T22:20:30.684Z,8.00
2019-04-04T22:23:02.209Z,8.01
2019-04-04T22:25:36.734Z,8.00
2019-04-04T22:28:11.249Z,8.04
2019-04-04T22:30:42.065Z,8.03
2019-04-04T22:33:12.305Z,8.04
2019-04-04T22:35:43.041Z,8.03
2019-04-04T22:38:13.806Z,8.08
2019-04-04T22:40:44.127Z,8.14
2019-04-04T22:43:14.507Z,8.20
2019-04-04T22:45:44.931Z,8.34
2019-04-04T22:48:16.220Z,8.33
2019-04-04T22:50:46.611Z,8.38
2019-04-04T22:53:16.886Z,8.37
2019-04-04T22:55:47.611Z,8.44
2019-04-04T22:58:27.648Z,8.51
2019-04-04T23:00:50.143Z,8.48
2019-04-04T23:03:21.402Z,8.46
2019-04-04T23:05:51.806Z,8.37
2019-04-04T23:08:22.667Z,8.30
2019-04-04T23:10:53.364Z,8.31
2019-04-04T23:13:23.659Z,8.36
2019-04-04T23:15:54.453Z,8.38
2019-04-04T23:18:26.052Z,8.30
2019-04-04T23:20:56.758Z,8.28
2019-04-04T23:23:27.554Z,8.34
2019-04-04T23:26:00.030Z,8.29
2019-04-04T23:28:31.010Z,8.23
2019-04-04T23:31:01.289Z,8.31
2019-04-04T23:33:31.913Z,8.23
2019-04-04T23:36:02.506Z,8.20
2019-04-04T23:38:32.815Z,8.21
2019-04-04T23:41:03.956Z,8.22
2019-04-04T23:43:34.189Z,8.20
2019-04-04T23:46:10.908Z,8.29
2019-04-04T23:48:41.537Z,8.35
2019-04-04T23:51:11.746Z,8.34
2019-04-04T23:53:42.303Z,8.30
2019-04-04T23:56:12.713Z,8.22
2019-04-04T23:58:43.489Z,8.28
